Airport View

Enter AWOS ICAO identifier for current METAR.

ex. KFNL

KOSA 051255Z AUTO 00000KT 10SM SCT044 SCT055 SCT070 23/20 A3006 RMK AO1 T02300203

5 Aug 2020 13:08

Frequency: 119.775

Phone: 903-575-4027

Other Area AWOS: KJXI - KSLR - KJDD - KPRX

TAF KGGG 051120Z 0512/0612 12006KT P6SM VCSH BKN080 BKN250 FM051400 12006KT P6SM VCTS BKN050CB OVC080 TEMPO 0514/0518 5SM TSRA BR OVC040CB FM051800 12006KT 5SM -TSRA BR OVC050CB FM052000 12006KT P6SM VCTS SCT050CB BKN120 BKN250 FM060000 11005KT P6SM SCT050 BKN080 FM060600 10004KT P6SM OVC100